Seattle, WA (98101)

8:04 PM PDT on July 24, 2016 (GMT -0700)
Belltown | | Change Station

Elev 98 ft 47.61 °N, 122.35 °W | Updated 2 minutes ago

Clear
Clear
73.6 °F
Feels Like 77 °F
N
6.8
Wind Variable Wind from NNW

Today
High -- | Low -- °F
--% Chance of Precip.
Yesterday
High -- | Low -- °F
Precip. -- in
Pressure 30.01 in
Visibility 10.0 miles
Clouds Clear
Heat Index 77 °F
Dew Point 57 °F
Humidity 57%
Rainfall 0.00 in
Snow Depth Not available.
5:37 AM 8:53 PM
Waning Gibbous, 70% visible
METAR KBFI 250253Z 31005KT 10SM CLR 24/11 A3000 RMK AO2 SLP160 T02390111 55010
Pressure 30.01 in
Visibility 10.0 miles
Clouds Clear
Heat Index 77 °F
Dew Point 57 °F
Humidity 57%
Rainfall 0.00 in
Snow Depth Not available.
5:37 AM 8:53 PM
Waning Gibbous, 70% visible
METAR KBFI 250253Z 31005KT 10SM CLR 24/11 A3000 RMK AO2 SLP160 T02390111 55010

10-Day Weather Forecast

Almanac

Astronomy

Jul. 24, 2016 Rise Set
Actual Time
Civil Twilight
Nautical Twilight
Astronomical Twilight
Moon
Length of Visible Light
Length of Day
Tomorrow will be .
, % of the Moon is Illuminated

Today's Extremes

State Highs State Lows

Community

WunderPhotos

Upload Photos

1,927,252 photos uploaded!

WunderBlog® & News

Nearby

Air Quality

  Air Quality AQ Index Pollutant
Not available.

Snow Depth

Station Depth Elevation

Earthquake Activity

City Distance Mag. Time & Date
Minimum magnitude displayed is 2.5.

Coastal Water Temperatures

Place Temperature

Stations

Nearby Weather Stations

Station Location Temp. Windchill Dew Point Humidity Wind Precip. Elev Updated Type
                   

Watches & Warnings

There are currently no watches in effect.